createdAt,value
2024-04-09T00:00:42.626Z,65.93
2024-04-09T00:06:16.059Z,65.74
2024-04-09T00:11:23.912Z,65.72
2024-04-09T00:16:30.035Z,65.62
2024-04-09T00:21:34.071Z,65.64
2024-04-09T00:26:37.351Z,65.43
2024-04-09T00:31:40.290Z,65.64
2024-04-09T00:36:43.298Z,65.65
2024-04-09T00:41:46.726Z,65.67
2024-04-09T00:46:49.627Z,65.74
2024-04-09T00:51:54.117Z,65.79
2024-04-09T00:56:57.907Z,65.78
2024-04-09T01:02:05.480Z,65.92
2024-04-09T01:07:09.055Z,65.94
2024-04-09T01:12:11.950Z,66.06
2024-04-09T01:17:15.062Z,66.11
2024-04-09T01:22:18.269Z,66.11
2024-04-09T01:27:23.656Z,66.12
2024-04-09T01:32:26.748Z,66.28
2024-04-09T01:37:29.781Z,66.34
2024-04-09T01:42:33.064Z,66.41
2024-04-09T01:47:36.155Z,66.52
2024-04-09T01:52:41.937Z,66.66
2024-04-09T01:57:45.609Z,66.82
2024-04-09T02:02:53.734Z,66.88
2024-04-09T02:07:57.220Z,67.21
2024-04-09T02:13:00.140Z,67.18
2024-04-09T02:18:03.446Z,67.51
2024-04-09T02:23:06.386Z,67.64
2024-04-09T02:28:09.704Z,67.79
2024-04-09T02:33:14.487Z,68.12
2024-04-09T02:38:17.553Z,68.01
2024-04-09T02:43:22.519Z,68.51
2024-04-09T02:48:26.164Z,68.37
2024-04-09T02:53:29.186Z,68.45
2024-04-09T02:58:33.453Z,68.71
2024-04-09T03:03:37.535Z,68.86
2024-04-09T03:08:42.261Z,68.88
2024-04-09T03:13:47.333Z,69.25
2024-04-09T03:18:52.210Z,69.33
2024-04-09T03:23:55.593Z,69.45
2024-04-09T03:28:58.620Z,69.64
2024-04-09T03:34:02.081Z,69.87
2024-04-09T03:39:05.799Z,70.07
2024-04-09T03:44:09.031Z,70.21
2024-04-09T03:49:12.209Z,70.34
2024-04-09T03:54:15.523Z,70.59
2024-04-09T03:59:18.546Z,70.45
2024-04-09T04:04:22.205Z,70.72
2024-04-09T04:09:25.406Z,70.83
2024-04-09T04:14:28.906Z,70.86
2024-04-09T04:19:31.854Z,71.32
2024-04-09T04:24:34.971Z,71.34
2024-04-09T04:29:40.311Z,71.69
2024-04-09T04:34:44.442Z,71.70
2024-04-09T04:39:47.901Z,71.80
2024-04-09T04:44:50.993Z,72.10
2024-04-09T04:49:54.032Z,72.01
2024-04-09T04:54:58.712Z,72.01
2024-04-09T05:00:10.469Z,71.82
2024-04-09T05:05:13.861Z,71.87
2024-04-09T05:10:18.229Z,71.82
2024-04-09T05:15:21.719Z,71.73
2024-04-09T05:20:28.400Z,71.88
2024-04-09T05:25:33.684Z,71.63
2024-04-09T05:30:36.909Z,71.70
2024-04-09T05:35:39.844Z,71.31
2024-04-09T05:40:42.784Z,71.32
2024-04-09T05:45:45.810Z,71.16
2024-04-09T05:50:48.814Z,70.96
2024-04-09T05:55:56.105Z,70.76
2024-04-09T06:01:00.533Z,70.59
2024-04-09T06:06:03.935Z,70.59
2024-04-09T06:11:06.875Z,70.54
2024-04-09T06:16:09.762Z,70.13
2024-04-09T06:21:13.222Z,69.86
2024-04-09T06:26:19.801Z,70.02
2024-04-09T06:31:22.760Z,69.82
2024-04-09T06:36:27.873Z,69.86
2024-04-09T06:41:32.156Z,69.58
2024-04-09T06:46:35.063Z,69.44
2024-04-09T06:51:38.053Z,69.28
2024-04-09T06:56:40.911Z,69.13
2024-04-09T07:01:43.973Z,68.81
2024-04-09T07:06:47.338Z,68.70
2024-04-09T07:11:50.232Z,68.55
2024-04-09T07:16:53.288Z,68.26
2024-04-09T07:21:56.419Z,67.85
2024-04-09T07:26:59.342Z,67.67
2024-04-09T07:32:03.566Z,67.42
2024-04-09T07:37:06.501Z,67.34
2024-04-09T07:42:09.400Z,66.43
2024-04-09T07:47:12.464Z,66.21
2024-04-09T07:52:15.492Z,66.12
2024-04-09T07:57:18.785Z,66.11
2024-04-09T08:02:21.708Z,65.66
2024-04-09T08:07:26.639Z,65.59
2024-04-09T08:12:29.808Z,65.43
2024-04-09T08:17:33.090Z,65.17
2024-04-09T08:22:36.361Z,64.74
2024-04-09T08:27:40.149Z,64.62
2024-04-09T08:32:43.519Z,64.42
2024-04-09T08:37:48.068Z,64.37
2024-04-09T08:42:57.852Z,64.04
2024-04-09T08:48:06.352Z,63.69
2024-04-09T08:53:09.502Z,63.69
2024-04-09T08:58:13.582Z,63.54
2024-04-09T09:03:16.868Z,63.42
2024-04-09T09:08:19.968Z,62.87
2024-04-09T09:13:22.996Z,62.74
2024-04-09T09:18:26.335Z,62.30
2024-04-09T09:23:29.628Z,61.93
2024-04-09T09:28:32.619Z,61.89
2024-04-09T09:33:40.468Z,61.50
2024-04-09T09:38:45.525Z,61.42
2024-04-09T09:43:48.616Z,60.89
2024-04-09T09:48:54.742Z,60.80
2024-04-09T09:53:57.820Z,60.57
2024-04-09T09:59:02.611Z,60.16
2024-04-09T10:04:05.771Z,59.50
2024-04-09T10:09:09.360Z,58.85
2024-04-09T10:14:25.507Z,58.39
2024-04-09T10:19:36.187Z,58.21
2024-04-09T10:24:40.319Z,56.96
2024-04-09T10:29:53.084Z,56.41
2024-04-09T10:34:56.386Z,55.94
2024-04-09T10:40:00.180Z,55.53
2024-04-09T10:45:05.597Z,55.49
2024-04-09T10:50:10.150Z,54.48
2024-04-09T10:55:15.043Z,53.76
2024-04-09T11:00:19.348Z,53.53
2024-04-09T11:05:22.375Z,53.03
2024-04-09T11:10:25.386Z,52.62
2024-04-09T11:15:28.383Z,52.24
2024-04-09T11:20:31.308Z,51.84
2024-04-09T11:25:36.912Z,51.28
2024-04-09T11:30:43.598Z,51.17
2024-04-09T11:35:53.137Z,51.32
2024-04-09T11:40:56.128Z,51.25
2024-04-09T11:46:03.597Z,51.43
2024-04-09T11:51:06.551Z,50.90
2024-04-09T11:56:09.541Z,50.15
2024-04-09T12:01:12.623Z,50.27
2024-04-09T12:06:15.806Z,49.98
2024-04-09T12:11:21.980Z,49.67
2024-04-09T12:16:25.714Z,49.66
2024-04-09T12:21:29.081Z,49.56
2024-04-09T12:26:32.026Z,49.15
2024-04-09T12:31:35.059Z,49.03
2024-04-09T12:36:38.609Z,48.97
2024-04-09T12:41:42.335Z,48.87
2024-04-09T12:46:45.508Z,48.79
2024-04-09T12:51:48.891Z,48.19
2024-04-09T12:56:52.233Z,48.21
2024-04-09T13:01:55.333Z,47.26
2024-04-09T13:06:59.910Z,46.41
2024-04-09T13:12:03.433Z,46.67
2024-04-09T13:17:08.416Z,45.94
2024-04-09T13:22:11.977Z,44.69
2024-04-09T13:27:16.302Z,44.90
2024-04-09T13:32:20.976Z,44.44
2024-04-09T13:37:23.950Z,44.27
2024-04-09T13:42:26.891Z,44.49
2024-04-09T13:47:29.896Z,43.99
2024-04-09T13:52:36.422Z,44.07
2024-04-09T13:57:39.367Z,43.37
2024-04-09T14:02:43.570Z,43.08
2024-04-09T14:07:47.486Z,43.32
2024-04-09T14:12:50.447Z,43.30
2024-04-09T14:17:56.584Z,43.26
2024-04-09T14:22:59.673Z,43.21
2024-04-09T14:28:02.535Z,42.78
2024-04-09T14:33:05.559Z,42.81
2024-04-09T14:38:10.017Z,42.93
2024-04-09T14:43:13.297Z,42.91
2024-04-09T14:48:16.543Z,42.73
2024-04-09T14:53:19.691Z,42.97
2024-04-09T14:58:22.671Z,42.48
2024-04-09T15:03:25.544Z,42.74
2024-04-09T15:08:30.502Z,42.77
2024-04-09T15:13:33.561Z,42.99
2024-04-09T15:18:36.805Z,42.92
2024-04-09T15:23:42.080Z,42.81
2024-04-09T15:28:47.982Z,42.75
2024-04-09T15:33:54.431Z,42.75
2024-04-09T15:39:00.537Z,43.04
2024-04-09T15:44:04.887Z,43.13
2024-04-09T15:49:08.140Z,43.18
2024-04-09T15:54:11.392Z,43.16
2024-04-09T15:59:15.246Z,43.16
2024-04-09T16:04:18.247Z,43.35
2024-04-09T16:09:21.510Z,43.31
2024-04-09T16:14:24.716Z,43.39
2024-04-09T16:19:28.568Z,43.61
2024-04-09T16:24:32.435Z,43.74
2024-04-09T16:29:35.651Z,43.85
2024-04-09T16:34:39.857Z,43.94
2024-04-09T16:39:44.311Z,44.02
2024-04-09T16:44:47.892Z,44.35
2024-04-09T16:49:51.525Z,44.61
2024-04-09T16:54:54.719Z,44.82
2024-04-09T16:59:57.955Z,45.06
2024-04-09T17:05:01.347Z,45.26
2024-04-09T17:10:11.228Z,45.61
2024-04-09T17:15:16.342Z,45.89
2024-04-09T17:20:20.801Z,46.07
2024-04-09T17:25:24.519Z,46.43
2024-04-09T17:30:28.282Z,46.68
2024-04-09T17:35:34.462Z,47.01
2024-04-09T17:40:37.832Z,47.38
2024-04-09T17:45:41.056Z,47.64
2024-04-09T17:50:44.031Z,48.04
2024-04-09T17:55:46.958Z,48.22
2024-04-09T18:00:50.629Z,48.47
2024-04-09T18:05:59.410Z,48.88
2024-04-09T18:11:04.506Z,49.28
2024-04-09T18:16:12.818Z,49.60
2024-04-09T18:21:15.938Z,49.90
2024-04-09T18:26:21.480Z,50.30
2024-04-09T18:31:25.792Z,50.65
2024-04-09T18:36:28.662Z,51.16
2024-04-09T18:41:31.754Z,51.49
2024-04-09T18:46:34.855Z,51.99
2024-04-09T18:51:37.985Z,52.22
2024-04-09T18:56:43.521Z,52.74
2024-04-09T19:01:46.483Z,53.62
2024-04-09T19:06:49.429Z,53.51
2024-04-09T19:11:58.178Z,54.42
2024-04-09T19:17:02.255Z,54.50
2024-04-09T19:22:05.524Z,55.00
2024-04-09T19:27:10.063Z,54.94
2024-04-09T19:32:13.055Z,55.91
2024-04-09T19:37:17.234Z,55.80
2024-04-09T19:42:24.157Z,56.50
2024-04-09T19:47:27.258Z,56.74
2024-04-09T19:52:30.290Z,56.89
2024-04-09T19:57:33.223Z,57.15
2024-04-09T20:02:38.720Z,57.76
2024-04-09T20:07:41.802Z,57.55
2024-04-09T20:12:45.145Z,58.35
2024-04-09T20:17:48.237Z,58.22
2024-04-09T20:22:51.790Z,58.15
2024-04-09T20:27:54.959Z,58.66
2024-04-09T20:32:58.404Z,58.77
2024-04-09T20:38:01.455Z,58.79
2024-04-09T20:43:07.238Z,58.85
2024-04-09T20:48:10.764Z,59.44
2024-04-09T20:53:14.295Z,59.10
2024-04-09T20:58:17.182Z,59.06
2024-04-09T21:03:20.182Z,58.92
2024-04-09T21:08:23.747Z,59.02
2024-04-09T21:13:26.674Z,59.03
2024-04-09T21:18:30.093Z,59.21
2024-04-09T21:23:33.593Z,59.17
2024-04-09T21:28:36.659Z,59.21
2024-04-09T21:33:39.843Z,59.21
2024-04-09T21:38:42.869Z,59.19
2024-04-09T21:43:45.957Z,59.19
2024-04-09T21:48:49.178Z,59.44
2024-04-09T21:53:53.574Z,59.45
2024-04-09T21:58:56.814Z,59.58
2024-04-09T22:04:00.056Z,59.59
2024-04-09T22:09:03.121Z,59.78
2024-04-09T22:14:06.288Z,59.91
2024-04-09T22:19:09.833Z,59.85
2024-04-09T22:24:13.424Z,59.89
2024-04-09T22:29:16.409Z,60.03
2024-04-09T22:34:20.652Z,60.13
2024-04-09T22:39:23.703Z,60.24
2024-04-09T22:44:26.780Z,60.43
2024-04-09T22:49:30.240Z,60.50
2024-04-09T22:54:33.540Z,60.53
2024-04-09T22:59:36.567Z,60.59
2024-04-09T23:04:39.811Z,60.86
2024-04-09T23:09:45.062Z,60.93
2024-04-09T23:14:51.388Z,61.17
2024-04-09T23:19:54.893Z,61.44
2024-04-09T23:24:57.975Z,61.48
2024-04-09T23:30:00.887Z,61.63
2024-04-09T23:35:04.258Z,61.75
2024-04-09T23:40:08.108Z,61.88
2024-04-09T23:45:11.002Z,62.12
2024-04-09T23:50:14.090Z,62.28
2024-04-09T23:55:17.131Z,62.29
